createdAt,value
2023-02-18T00:01:40.271Z,1.67
2023-02-18T00:04:09.093Z,1.40
2023-02-18T00:06:37.128Z,1.85
2023-02-18T00:09:06.375Z,1.30
2023-02-18T00:11:36.131Z,2.03
2023-02-18T00:14:10.598Z,1.90
2023-02-18T00:16:38.534Z,1.85
2023-02-18T00:19:11.114Z,2.15
2023-02-18T00:21:39.484Z,2.28
2023-02-18T00:24:08.348Z,2.55
2023-02-18T00:26:36.793Z,1.80
2023-02-18T00:29:04.955Z,2.33
2023-02-18T00:31:36.052Z,2.70
2023-02-18T00:34:05.166Z,2.45
2023-02-18T00:36:33.155Z,2.65
2023-02-18T00:39:03.846Z,2.58
2023-02-18T00:41:32.492Z,2.85
2023-02-18T00:44:00.448Z,3.00
2023-02-18T00:46:28.938Z,2.63
2023-02-18T00:48:57.022Z,2.88
2023-02-18T00:51:25.539Z,3.03
2023-02-18T00:53:53.873Z,3.88
2023-02-18T00:56:21.914Z,3.17
2023-02-18T00:58:50.382Z,3.17
2023-02-18T01:01:19.474Z,3.50
2023-02-18T01:03:47.718Z,3.38
2023-02-18T01:06:15.518Z,3.47
2023-02-18T01:08:43.524Z,3.95
2023-02-18T01:11:13.073Z,4.10
2023-02-18T01:13:41.725Z,5.35
2023-02-18T01:16:10.331Z,4.93
2023-02-18T01:18:39.574Z,5.38
2023-02-18T01:21:09.116Z,5.03
2023-02-18T01:23:39.934Z,6.70
2023-02-18T01:26:09.385Z,7.70
2023-02-18T01:28:40.763Z,7.20
2023-02-18T01:31:12.307Z,7.90
2023-02-18T01:33:41.013Z,8.10
2023-02-18T01:36:11.044Z,10.18
2023-02-18T01:38:39.768Z,8.90
2023-02-18T01:41:07.706Z,9.68
2023-02-18T01:43:37.592Z,9.48
2023-02-18T01:46:21.072Z,10.82
2023-02-18T01:48:52.000Z,10.40
2023-02-18T01:51:32.140Z,9.73
2023-02-18T01:54:11.638Z,10.90
2023-02-18T01:57:02.494Z,11.57
2023-02-18T01:59:46.877Z,11.15
2023-02-18T02:02:21.708Z,11.00
2023-02-18T02:04:50.537Z,11.27
2023-02-18T02:07:20.738Z,10.73
2023-02-18T02:09:50.890Z,10.63
2023-02-18T02:12:24.667Z,10.13
2023-02-18T02:15:45.429Z,10.52
2023-02-18T02:18:58.843Z,11.50
2023-02-18T02:21:58.892Z,10.90
2023-02-18T02:24:54.495Z,10.18
2023-02-18T02:28:07.944Z,12.05
2023-02-18T02:30:44.998Z,11.95
2023-02-18T02:33:28.041Z,11.60
2023-02-18T02:36:20.442Z,12.15
2023-02-18T02:39:03.462Z,12.60
2023-02-18T02:42:04.232Z,12.55
2023-02-18T02:44:44.378Z,11.75
2023-02-18T02:47:51.602Z,11.38
2023-02-18T02:50:38.746Z,11.57
2023-02-18T02:53:25.831Z,13.45
2023-02-18T02:55:56.165Z,13.57
2023-02-18T02:58:25.672Z,12.13
2023-02-18T03:01:15.477Z,14.20
2023-02-18T03:04:05.763Z,12.65
2023-02-18T03:07:12.314Z,11.57
2023-02-18T03:10:14.642Z,11.95
2023-02-18T03:13:10.030Z,12.27
2023-02-18T03:15:43.942Z,11.63
2023-02-18T03:18:28.066Z,12.85
2023-02-18T03:21:11.190Z,12.90
2023-02-18T03:23:49.904Z,12.65
2023-02-18T03:26:21.177Z,13.40
2023-02-18T03:28:53.193Z,12.68
2023-02-18T03:31:26.093Z,12.45
2023-02-18T03:34:05.490Z,13.18
2023-02-18T03:36:34.203Z,11.98
2023-02-18T03:39:11.059Z,12.30
2023-02-18T03:41:39.035Z,12.30
2023-02-18T03:44:09.694Z,11.38
2023-02-18T03:46:46.444Z,12.82
2023-02-18T03:49:15.665Z,13.85
2023-02-18T03:51:44.552Z,13.52
2023-02-18T03:54:14.436Z,10.55
2023-02-18T03:56:43.742Z,13.43
2023-02-18T03:59:12.726Z,12.38
2023-02-18T04:01:40.659Z,12.65
2023-02-18T04:04:11.326Z,13.07
2023-02-18T04:06:39.317Z,11.75
2023-02-18T04:09:09.045Z,13.23
2023-02-18T04:11:39.752Z,12.23
2023-02-18T04:14:08.386Z,12.48
2023-02-18T04:16:36.504Z,12.20
2023-02-18T04:19:04.501Z,10.48
2023-02-18T04:21:33.956Z,12.70
2023-02-18T04:24:02.130Z,12.63
2023-02-18T04:26:30.315Z,11.93
2023-02-18T04:28:58.164Z,12.05
2023-02-18T04:31:26.329Z,11.95
2023-02-18T04:33:54.214Z,11.98
2023-02-18T04:36:22.233Z,11.45
2023-02-18T04:38:50.130Z,11.70
2023-02-18T04:41:17.952Z,11.88
2023-02-18T04:43:45.831Z,12.57
2023-02-18T04:46:13.847Z,12.75
2023-02-18T04:48:41.863Z,12.00
2023-02-18T04:51:09.755Z,11.55
2023-02-18T04:53:37.615Z,11.65
2023-02-18T04:56:05.519Z,11.70
2023-02-18T04:58:33.587Z,10.25
2023-02-18T05:01:02.990Z,11.05
2023-02-18T05:03:31.321Z,11.73
2023-02-18T05:05:59.520Z,10.13
2023-02-18T05:08:27.355Z,9.55
2023-02-18T05:10:55.213Z,9.80
2023-02-18T05:13:23.209Z,9.20
2023-02-18T05:15:52.284Z,9.45
2023-02-18T05:18:20.134Z,9.15
2023-02-18T05:20:47.952Z,8.15
2023-02-18T05:23:15.801Z,7.65
2023-02-18T05:25:44.775Z,8.68
2023-02-18T05:28:12.649Z,6.00
2023-02-18T05:30:40.567Z,7.18
2023-02-18T05:33:08.641Z,6.32
2023-02-18T05:35:41.104Z,6.28
2023-02-18T05:38:09.930Z,5.78
2023-02-18T05:40:38.845Z,5.68
2023-02-18T05:43:06.818Z,4.72
2023-02-18T05:45:35.643Z,5.20
2023-02-18T05:48:03.825Z,4.57
2023-02-18T05:50:31.893Z,4.28
2023-02-18T05:52:59.802Z,4.10
2023-02-18T05:55:29.053Z,4.40
2023-02-18T05:57:57.129Z,3.67
2023-02-18T06:00:25.988Z,3.38
2023-02-18T06:02:54.906Z,2.83
2023-02-18T06:05:25.214Z,3.25
2023-02-18T06:07:56.707Z,2.07
2023-02-18T06:10:24.752Z,3.30
2023-02-18T06:12:52.667Z,3.38
2023-02-18T06:15:21.156Z,2.95
2023-02-18T06:17:49.221Z,3.13
2023-02-18T06:20:17.174Z,3.25
2023-02-18T06:22:45.176Z,3.80
2023-02-18T06:25:14.164Z,2.63
2023-02-18T06:27:42.068Z,2.45
2023-02-18T06:30:10.427Z,2.53
2023-02-18T06:32:38.381Z,2.58
2023-02-18T06:35:06.507Z,2.53
2023-02-18T06:37:34.501Z,2.53
2023-02-18T06:40:02.327Z,2.38
2023-02-18T06:42:30.225Z,3.10
2023-02-18T06:44:58.083Z,2.33
2023-02-18T06:47:26.424Z,2.55
2023-02-18T06:49:54.288Z,2.83
2023-02-18T06:52:22.133Z,2.33
2023-02-18T06:54:50.006Z,2.95
2023-02-18T06:57:18.208Z,1.50
2023-02-18T06:59:46.138Z,2.30
2023-02-18T07:02:14.002Z,2.20
2023-02-18T07:04:41.940Z,2.13
2023-02-18T07:07:09.739Z,1.80
2023-02-18T07:09:37.582Z,1.92
2023-02-18T07:12:05.715Z,1.90
2023-02-18T07:14:33.541Z,1.55
2023-02-18T07:17:01.410Z,1.85
2023-02-18T07:19:29.302Z,1.55
2023-02-18T07:21:57.778Z,1.63
2023-02-18T07:24:25.733Z,1.70
2023-02-18T07:26:53.568Z,1.60
2023-02-18T07:29:21.471Z,1.58
2023-02-18T07:31:49.453Z,1.33
2023-02-18T07:34:17.639Z,1.10
2023-02-18T07:36:45.821Z,1.23
2023-02-18T07:39:13.770Z,1.42
2023-02-18T07:41:41.663Z,1.50
2023-02-18T07:44:16.199Z,1.60
2023-02-18T07:46:45.598Z,1.38
2023-02-18T07:49:15.165Z,1.40
2023-02-18T07:51:43.027Z,1.30
2023-02-18T07:54:10.842Z,1.05
2023-02-18T07:56:38.700Z,1.48
2023-02-18T07:59:06.605Z,1.45
2023-02-18T08:01:34.464Z,1.83
2023-02-18T08:04:02.487Z,1.30
2023-02-18T08:06:39.899Z,1.10
2023-02-18T08:09:09.259Z,1.50
2023-02-18T08:11:37.890Z,1.08
2023-02-18T08:14:05.890Z,1.33
2023-02-18T08:16:34.803Z,1.10
2023-02-18T08:19:04.898Z,0.95
2023-02-18T08:21:32.770Z,1.27
2023-02-18T08:24:00.646Z,1.17
2023-02-18T08:26:29.797Z,0.93
2023-02-18T08:28:58.859Z,1.25
2023-02-18T08:31:29.277Z,1.10
2023-02-18T08:33:58.784Z,0.93
2023-02-18T08:36:27.965Z,1.17
2023-02-18T08:38:56.077Z,0.98
2023-02-18T08:41:23.995Z,1.08
2023-02-18T08:43:51.860Z,1.17
2023-02-18T08:46:20.093Z,1.00
2023-02-18T08:48:53.214Z,1.17
2023-02-18T08:51:22.940Z,1.20
2023-02-18T08:53:51.136Z,1.38
2023-02-18T08:56:24.116Z,1.20
2023-02-18T08:58:51.933Z,1.52
2023-02-18T09:01:20.765Z,1.58
2023-02-18T09:03:49.039Z,2.00
2023-02-18T09:06:17.114Z,1.40
2023-02-18T09:09:10.309Z,1.63
2023-02-18T09:13:01.026Z,1.55
2023-02-18T09:15:29.021Z,1.00
2023-02-18T09:18:21.990Z,1.05
2023-02-18T09:20:49.890Z,1.08
2023-02-18T09:23:17.891Z,1.17
2023-02-18T09:25:45.775Z,1.25
2023-02-18T09:28:13.597Z,1.17
2023-02-18T09:30:41.568Z,1.20
2023-02-18T09:33:09.611Z,1.00
2023-02-18T09:35:46.410Z,1.45
2023-02-18T09:38:16.951Z,1.20
2023-02-18T09:41:27.014Z,1.25
2023-02-18T09:44:14.581Z,1.17
2023-02-18T09:47:03.952Z,1.20
2023-02-18T09:49:40.544Z,1.20
2023-02-18T09:52:45.248Z,1.48
2023-02-18T09:55:41.141Z,1.30
2023-02-18T09:58:23.469Z,1.40
2023-02-18T10:01:35.639Z,1.65
2023-02-18T10:04:23.781Z,1.25
2023-02-18T10:07:33.535Z,1.30
2023-02-18T10:10:47.781Z,2.08
2023-02-18T10:13:20.952Z,2.03
2023-02-18T10:15:58.206Z,1.95
2023-02-18T10:18:35.723Z,1.88
2023-02-18T10:21:13.350Z,1.88
2023-02-18T10:23:50.326Z,1.58
2023-02-18T10:26:19.540Z,2.72
2023-02-18T10:29:21.409Z,2.10
2023-02-18T10:32:33.168Z,2.45
2023-02-18T10:35:25.256Z,2.33
2023-02-18T10:37:53.167Z,2.30
2023-02-18T10:40:40.054Z,2.70
2023-02-18T10:43:20.990Z,2.83
2023-02-18T10:46:14.287Z,2.35
2023-02-18T10:49:00.994Z,2.22
2023-02-18T10:51:35.681Z,2.15
2023-02-18T10:54:03.901Z,2.22
2023-02-18T10:56:43.526Z,2.45
2023-02-18T10:59:24.414Z,2.45
2023-02-18T11:02:12.514Z,2.03
2023-02-18T11:04:42.750Z,2.75
2023-02-18T11:07:22.881Z,1.90
2023-02-18T11:09:59.951Z,2.63
2023-02-18T11:12:50.975Z,1.77
2023-02-18T11:15:23.527Z,1.75
2023-02-18T11:18:25.774Z,2.53
2023-02-18T11:21:53.341Z,1.90
2023-02-18T11:24:21.567Z,2.45
2023-02-18T11:26:49.473Z,1.70
2023-02-18T11:29:21.465Z,2.08
2023-02-18T11:31:53.188Z,1.63
2023-02-18T11:34:32.687Z,1.83
2023-02-18T11:37:19.206Z,1.50
2023-02-18T11:39:54.929Z,1.60
2023-02-18T11:42:26.674Z,1.30
2023-02-18T11:44:59.923Z,1.30
2023-02-18T11:47:36.333Z,1.52
2023-02-18T11:50:10.014Z,1.23
2023-02-18T11:52:44.625Z,1.45
2023-02-18T11:55:22.507Z,1.30
2023-02-18T11:58:03.204Z,1.40
2023-02-18T12:00:47.031Z,1.55
2023-02-18T12:03:59.075Z,1.45
2023-02-18T12:06:39.881Z,1.55
2023-02-18T12:09:29.949Z,1.55
2023-02-18T12:12:03.690Z,1.65
2023-02-18T12:14:33.362Z,1.70
2023-02-18T12:17:31.341Z,2.00
2023-02-18T12:20:33.148Z,1.90
2023-02-18T12:26:21.135Z,1.52
2023-02-18T12:29:05.704Z,1.90
2023-02-18T12:31:52.271Z,2.35
2023-02-18T12:34:23.803Z,1.85
2023-02-18T12:37:35.156Z,1.52
2023-02-18T12:40:26.645Z,1.98
2023-02-18T12:46:19.603Z,2.03
2023-02-18T12:49:26.846Z,2.53
2023-02-18T12:52:13.060Z,2.60
2023-02-18T12:55:08.925Z,2.50
2023-02-18T12:57:54.673Z,2.78
2023-02-18T13:00:47.244Z,3.17
2023-02-18T13:03:37.592Z,2.40
2023-02-18T13:06:46.728Z,2.40
2023-02-18T13:09:41.068Z,2.28
2023-02-18T13:12:09.004Z,2.67
2023-02-18T13:15:03.975Z,2.38
2023-02-18T13:17:37.005Z,2.97
2023-02-18T13:20:52.438Z,3.22
2023-02-18T13:23:24.504Z,3.30
2023-02-18T13:25:59.506Z,2.85
2023-02-18T13:28:52.009Z,3.25
2023-02-18T13:32:08.570Z,3.20
2023-02-18T13:35:00.820Z,3.45
2023-02-18T13:37:49.110Z,3.63
2023-02-18T13:40:30.462Z,2.92
2023-02-18T13:46:23.730Z,3.92
2023-02-18T13:49:13.334Z,3.00
2023-02-18T13:52:07.326Z,3.63
2023-02-18T13:54:43.240Z,2.70
2023-02-18T13:57:21.687Z,3.80
2023-02-18T13:59:57.206Z,3.35
2023-02-18T14:02:25.589Z,3.22
2023-02-18T14:05:21.450Z,3.30
2023-02-18T14:08:12.707Z,2.92
2023-02-18T14:10:41.088Z,3.38
2023-02-18T14:13:19.297Z,3.40
2023-02-18T14:16:00.111Z,2.97
2023-02-18T14:18:39.332Z,3.50
2023-02-18T14:21:12.913Z,3.55
2023-02-18T14:23:40.882Z,3.35
2023-02-18T14:26:13.885Z,3.45
2023-02-18T14:29:11.461Z,3.47
2023-02-18T14:32:10.670Z,2.53
2023-02-18T14:35:27.977Z,2.58
2023-02-18T14:38:21.037Z,3.38
2023-02-18T14:40:54.832Z,3.88
2023-02-18T14:44:12.523Z,2.92
2023-02-18T14:47:01.368Z,3.20
2023-02-18T14:49:36.693Z,2.92
2023-02-18T14:52:21.803Z,2.95
2023-02-18T14:54:57.448Z,2.42
2023-02-18T14:57:44.912Z,3.15
2023-02-18T15:00:20.409Z,3.20
2023-02-18T15:02:52.000Z,2.72
2023-02-18T15:05:27.519Z,3.50
2023-02-18T15:08:04.111Z,3.38
2023-02-18T15:10:39.528Z,3.00
2023-02-18T15:13:26.873Z,3.20
2023-02-18T15:16:00.185Z,3.17
2023-02-18T15:18:40.209Z,3.22
2023-02-18T15:21:16.778Z,3.72
2023-02-18T15:23:44.634Z,3.42
2023-02-18T15:26:16.038Z,3.22
2023-02-18T15:29:03.217Z,3.20
2023-02-18T15:31:38.475Z,2.80
2023-02-18T15:34:29.197Z,3.67
2023-02-18T15:37:01.326Z,2.58
2023-02-18T15:39:29.806Z,2.70
2023-02-18T15:42:14.024Z,2.90
2023-02-18T15:44:48.854Z,3.08
2023-02-18T15:47:18.808Z,2.95
2023-02-18T15:49:53.951Z,2.85
2023-02-18T15:52:28.664Z,3.75
2023-02-18T15:55:02.559Z,2.72
2023-02-18T15:57:31.375Z,2.47
2023-02-18T16:00:21.061Z,3.40
2023-02-18T16:03:21.085Z,3.17
2023-02-18T16:05:49.350Z,2.95
2023-02-18T16:08:26.192Z,2.60
2023-02-18T16:11:03.053Z,3.15
2023-02-18T16:13:31.869Z,3.17
2023-02-18T16:16:01.519Z,2.78
2023-02-18T16:18:32.313Z,2.78
2023-02-18T16:21:20.121Z,2.28
2023-02-18T16:24:00.179Z,2.80
2023-02-18T16:26:33.312Z,2.55
2023-02-18T16:29:14.176Z,3.15
2023-02-18T16:31:43.148Z,2.78
2023-02-18T16:34:11.100Z,3.03
2023-02-18T16:36:59.141Z,2.03
2023-02-18T16:39:29.530Z,2.75
2023-02-18T16:41:57.529Z,2.58
2023-02-18T16:44:25.332Z,2.85
2023-02-18T16:46:53.243Z,1.80
2023-02-18T16:49:21.275Z,2.33
2023-02-18T16:51:50.660Z,2.45
2023-02-18T16:54:18.714Z,2.42
2023-02-18T16:56:46.713Z,2.30
2023-02-18T16:59:16.658Z,2.67
2023-02-18T17:01:45.971Z,2.17
2023-02-18T17:04:19.951Z,2.38
2023-02-18T17:06:48.515Z,2.10
2023-02-18T17:09:26.880Z,2.28
2023-02-18T17:11:56.159Z,2.03
2023-02-18T17:14:24.218Z,2.40
2023-02-18T17:16:53.638Z,2.35
2023-02-18T17:19:22.176Z,1.42
2023-02-18T17:21:52.449Z,2.60
2023-02-18T17:24:21.087Z,1.93
2023-02-18T17:26:49.227Z,2.92
2023-02-18T17:29:17.153Z,2.10
2023-02-18T17:31:47.208Z,2.15
2023-02-18T17:34:28.957Z,1.85
2023-02-18T17:36:57.058Z,2.10
2023-02-18T17:39:25.129Z,2.10
2023-02-18T17:41:52.989Z,1.85
2023-02-18T17:44:23.605Z,2.03
2023-02-18T17:46:52.213Z,2.20
2023-02-18T17:49:22.259Z,1.92
2023-02-18T17:51:50.532Z,1.80
2023-02-18T17:54:22.619Z,1.98
2023-02-18T17:56:51.010Z,1.50
2023-02-18T17:59:18.935Z,2.53
2023-02-18T18:01:46.865Z,2.05
2023-02-18T18:04:17.928Z,1.92
2023-02-18T18:09:18.846Z,1.30
2023-02-18T18:11:46.729Z,2.13
2023-02-18T18:14:15.205Z,2.22
2023-02-18T18:16:43.070Z,2.40
2023-02-18T18:19:11.080Z,2.08
2023-02-18T18:21:39.040Z,2.05
2023-02-18T18:24:07.095Z,1.70
2023-02-18T18:26:35.005Z,1.50
2023-02-18T18:29:02.815Z,1.98
2023-02-18T18:31:32.397Z,1.80
2023-02-18T18:34:01.924Z,2.47
2023-02-18T18:36:29.985Z,1.70
2023-02-18T18:38:57.774Z,1.95
2023-02-18T18:41:25.629Z,1.88
2023-02-18T18:43:53.540Z,2.28
2023-02-18T18:46:21.409Z,2.42
2023-02-18T18:48:49.509Z,2.20
2023-02-18T18:51:21.800Z,2.00
2023-02-18T18:53:49.761Z,2.35
2023-02-18T18:56:17.554Z,1.90
2023-02-18T18:58:45.512Z,2.35
2023-02-18T19:01:20.900Z,2.40
2023-02-18T19:03:52.366Z,1.73
2023-02-18T19:08:49.025Z,3.35
2023-02-18T19:11:17.397Z,2.42
2023-02-18T19:13:45.715Z,1.38
2023-02-18T19:16:28.163Z,2.45
2023-02-18T19:18:56.073Z,2.22
2023-02-18T19:21:23.910Z,2.22
2023-02-18T19:23:51.869Z,2.10
2023-02-18T19:26:20.552Z,1.85
2023-02-18T19:28:49.660Z,1.80
2023-02-18T19:31:17.735Z,1.83
2023-02-18T19:33:47.115Z,2.13
2023-02-18T19:36:16.657Z,2.28
2023-02-18T19:38:45.903Z,2.53
2023-02-18T19:41:16.916Z,1.85
2023-02-18T19:43:46.625Z,1.63
2023-02-18T19:46:17.285Z,2.30
2023-02-18T19:48:50.511Z,2.13
2023-02-18T19:51:19.082Z,2.85
2023-02-18T19:53:47.161Z,2.28
2023-02-18T19:56:15.127Z,2.33
2023-02-18T19:58:43.647Z,2.22
2023-02-18T20:01:16.147Z,2.30
2023-02-18T20:03:44.576Z,2.92
2023-02-18T20:06:20.712Z,3.20
2023-02-18T20:08:48.761Z,3.33
2023-02-18T20:11:16.865Z,3.17
2023-02-18T20:13:44.712Z,3.38
2023-02-18T20:16:12.846Z,3.10
2023-02-18T20:18:40.939Z,4.00
2023-02-18T20:21:12.085Z,4.75
2023-02-18T20:23:40.540Z,4.72
2023-02-18T20:26:10.199Z,4.60
2023-02-18T20:28:38.466Z,4.00
2023-02-18T20:31:11.104Z,5.35
2023-02-18T20:33:39.795Z,4.68
2023-02-18T20:36:08.569Z,5.35
2023-02-18T20:38:39.098Z,5.20
2023-02-18T20:41:13.866Z,5.85
2023-02-18T20:43:42.535Z,5.53
2023-02-18T20:46:15.307Z,5.78
2023-02-18T20:48:43.711Z,5.65
2023-02-18T20:51:15.393Z,5.68
2023-02-18T20:53:45.171Z,5.68
2023-02-18T20:56:13.042Z,5.38
2023-02-18T20:58:41.618Z,5.13
2023-02-18T21:01:14.725Z,5.55
2023-02-18T21:03:44.888Z,5.90
2023-02-18T21:06:16.753Z,5.25
2023-02-18T21:08:47.356Z,6.07
2023-02-18T21:11:19.557Z,5.78
2023-02-18T21:13:51.304Z,6.43
2023-02-18T21:16:20.839Z,6.43
2023-02-18T21:18:48.936Z,6.25
2023-02-18T21:21:17.754Z,6.20
2023-02-18T21:23:45.882Z,7.07
2023-02-18T21:26:22.622Z,6.82
2023-02-18T21:28:57.513Z,6.30
2023-02-18T21:31:34.247Z,6.00
2023-02-18T21:34:05.291Z,5.15
2023-02-18T21:36:33.817Z,5.38
2023-02-18T21:39:05.476Z,5.53
2023-02-18T21:41:34.983Z,5.50
2023-02-18T21:44:03.606Z,5.13
2023-02-18T21:46:36.438Z,6.20
2023-02-18T21:49:12.333Z,5.32
2023-02-18T21:51:57.506Z,5.82
2023-02-18T21:54:33.421Z,7.28
2023-02-18T21:57:03.847Z,6.95
2023-02-18T21:59:33.429Z,6.40
2023-02-18T22:02:01.884Z,6.55
2023-02-18T22:04:33.754Z,7.63
2023-02-18T22:07:03.240Z,8.07
2023-02-18T22:09:31.507Z,8.77
2023-02-18T22:11:59.441Z,9.35
2023-02-18T22:14:27.479Z,7.93
2023-02-18T22:16:55.440Z,8.95
2023-02-18T22:19:28.438Z,8.45
2023-02-18T22:21:56.526Z,8.30
2023-02-18T22:24:24.527Z,9.27
2023-02-18T22:26:52.322Z,8.90
2023-02-18T22:29:21.224Z,8.68
2023-02-18T22:31:49.890Z,8.82
2023-02-18T22:34:17.732Z,8.88
2023-02-18T22:36:45.853Z,9.05
2023-02-18T22:39:15.527Z,9.30
2023-02-18T22:41:43.879Z,9.88
2023-02-18T22:44:14.231Z,9.25
2023-02-18T22:46:42.906Z,9.65
2023-02-18T22:49:11.947Z,7.93
2023-02-18T22:51:43.152Z,7.38
2023-02-18T22:56:40.725Z,7.75
2023-02-18T22:59:09.689Z,7.25
2023-02-18T23:01:42.755Z,7.68
2023-02-18T23:04:16.062Z,6.03
2023-02-18T23:06:45.452Z,7.60
2023-02-18T23:09:17.217Z,7.72
2023-02-18T23:11:45.732Z,7.60
2023-02-18T23:14:19.562Z,6.13
2023-02-18T23:17:08.452Z,7.00
2023-02-18T23:19:37.004Z,8.02
2023-02-18T23:22:05.494Z,7.60
2023-02-18T23:24:38.757Z,8.05
2023-02-18T23:27:09.315Z,7.32
2023-02-18T23:29:38.599Z,6.70
2023-02-18T23:32:06.955Z,7.30
2023-02-18T23:34:35.028Z,7.60
2023-02-18T23:37:02.862Z,6.88
2023-02-18T23:39:31.060Z,7.88
2023-02-18T23:41:59.056Z,9.15
2023-02-18T23:44:27.315Z,9.23
2023-02-18T23:46:55.571Z,7.43
2023-02-18T23:49:26.197Z,8.27
2023-02-18T23:51:56.634Z,7.65
2023-02-18T23:54:24.897Z,8.30
2023-02-18T23:56:53.181Z,8.25
2023-02-18T23:59:21.031Z,7.28
